createdAt,value
2022-08-19T00:00:06.853Z,1007.58
2022-08-19T00:02:11.343Z,1007.58
2022-08-19T00:03:10.892Z,1007.61
2022-08-19T00:05:14.920Z,1007.67
2022-08-19T00:06:14.936Z,1007.70
2022-08-19T00:08:08.422Z,1007.67
2022-08-19T00:09:07.898Z,1007.71
2022-08-19T00:11:11.915Z,1007.74
2022-08-19T00:12:11.934Z,1007.75
2022-08-19T00:14:16.433Z,1007.79
2022-08-19T00:15:15.965Z,1007.79
2022-08-19T00:17:09.451Z,1007.78
2022-08-19T00:18:08.925Z,1007.77
2022-08-19T00:20:13.924Z,1007.80
2022-08-19T00:21:12.973Z,1007.79
2022-08-19T00:23:16.990Z,1007.79
2022-08-19T00:24:17.019Z,1007.80
2022-08-19T00:26:21.506Z,1007.83
2022-08-19T00:27:24.960Z,1007.85
2022-08-19T00:29:25.078Z,1007.90
2022-08-19T00:30:25.098Z,1007.88
2022-08-19T00:32:29.590Z,1007.87
2022-08-19T00:33:29.144Z,1007.79
2022-08-19T00:35:33.166Z,1007.80
2022-08-19T00:36:33.197Z,1007.83
2022-08-19T00:38:38.336Z,1007.85
2022-08-19T00:39:37.287Z,1007.78
2022-08-19T00:41:41.259Z,1007.82
2022-08-19T00:42:41.272Z,1007.80
2022-08-19T00:44:45.767Z,1007.81
2022-08-19T00:45:45.323Z,1007.79
2022-08-19T00:47:38.265Z,1007.73
2022-08-19T00:48:38.288Z,1007.71
2022-08-19T00:50:51.941Z,1007.68
2022-08-19T00:51:42.327Z,1007.63
2022-08-19T00:53:46.361Z,1007.64
2022-08-19T00:54:49.651Z,1007.61
2022-08-19T00:56:50.865Z,1007.56
2022-08-19T00:57:50.410Z,1007.55
2022-08-19T01:00:01.509Z,1007.48
2022-08-19T01:00:54.474Z,1007.49
2022-08-19T01:02:58.481Z,1007.46
2022-08-19T01:03:58.882Z,1007.44
2022-08-19T01:06:03.056Z,1007.43
2022-08-19T01:07:02.540Z,1007.46
2022-08-19T01:09:06.565Z,1007.48
2022-08-19T01:10:06.591Z,1007.47
2022-08-19T01:12:11.075Z,1007.52
2022-08-19T01:13:10.623Z,1007.56
2022-08-19T01:15:14.657Z,1007.58
2022-08-19T01:16:14.670Z,1007.53
2022-08-19T01:18:08.154Z,1007.55
2022-08-19T01:19:07.632Z,1007.58
2022-08-19T01:21:11.658Z,1007.55
2022-08-19T01:22:14.568Z,1007.53
2022-08-19T01:24:16.168Z,1007.52
2022-08-19T01:25:15.719Z,1007.54
2022-08-19T01:27:10.815Z,1007.53
2022-08-19T01:28:10.689Z,1007.57
2022-08-19T01:30:12.705Z,1007.59
2022-08-19T01:31:26.464Z,1007.60
2022-08-19T01:33:17.215Z,1007.58
2022-08-19T01:34:16.766Z,1007.55
2022-08-19T01:36:20.787Z,1007.51
2022-08-19T01:37:25.003Z,1007.54
2022-08-19T01:39:25.303Z,1007.51
2022-08-19T01:40:24.848Z,1007.52
2022-08-19T01:42:30.136Z,1007.48
2022-08-19T01:43:28.890Z,1007.45
2022-08-19T01:45:33.385Z,1007.41
2022-08-19T01:46:32.931Z,1007.42
2022-08-19T01:48:36.974Z,1007.35
2022-08-19T01:49:37.006Z,1007.37
2022-08-19T01:51:30.477Z,1007.33
2022-08-19T01:52:29.972Z,1007.30
2022-08-19T01:54:34.477Z,1007.30
2022-08-19T01:55:34.026Z,1007.35
2022-08-19T01:57:27.000Z,1007.30
2022-08-19T01:58:27.015Z,1007.31
2022-08-19T02:00:31.515Z,1007.26
2022-08-19T02:01:31.391Z,1007.27
2022-08-19T02:03:35.084Z,1007.22
2022-08-19T02:04:35.106Z,1007.21
2022-08-19T02:06:39.600Z,1007.19
2022-08-19T02:07:39.145Z,1007.18
2022-08-19T02:09:43.199Z,1007.20
2022-08-19T02:10:43.230Z,1007.19
2022-08-19T02:12:50.715Z,1007.15
2022-08-19T02:13:47.253Z,1007.15
2022-08-19T02:15:51.292Z,1007.08
2022-08-19T02:16:51.297Z,1007.10
2022-08-19T02:18:55.795Z,1007.04
2022-08-19T02:19:55.335Z,1007.03
2022-08-19T02:21:59.371Z,1006.97
2022-08-19T02:22:59.389Z,1006.99
2022-08-19T02:25:03.891Z,1006.97
2022-08-19T02:26:03.423Z,1006.96
2022-08-19T02:27:56.398Z,1006.99
2022-08-19T02:28:56.410Z,1007.00
2022-08-19T02:31:00.924Z,1007.06
2022-08-19T02:32:00.450Z,1007.03
2022-08-19T02:34:04.481Z,1007.07
2022-08-19T02:35:04.516Z,1007.10
2022-08-19T02:37:08.994Z,1007.11
2022-08-19T02:38:08.534Z,1007.13
2022-08-19T02:40:12.871Z,1007.20
2022-08-19T02:41:12.574Z,1007.18
2022-08-19T02:43:17.082Z,1007.19
2022-08-19T02:44:30.612Z,1007.26
2022-08-19T02:46:09.762Z,1007.27
2022-08-19T02:47:09.776Z,1007.24
2022-08-19T02:49:14.277Z,1007.24
2022-08-19T02:50:13.817Z,1007.24
2022-08-19T02:52:17.841Z,1007.14
2022-08-19T02:53:17.860Z,1007.14
2022-08-19T02:55:22.356Z,1007.09
2022-08-19T02:56:21.902Z,1007.06
2022-08-19T02:58:25.941Z,1007.02
2022-08-19T02:59:25.956Z,1007.02
2022-08-19T03:01:30.532Z,1006.99
2022-08-19T03:02:30.005Z,1007.02
2022-08-19T03:04:34.029Z,1007.07
2022-08-19T03:05:48.084Z,1007.08
2022-08-19T03:07:27.046Z,1007.12
2022-08-19T03:08:27.028Z,1007.16
2022-08-19T03:10:31.029Z,1007.21
2022-08-19T03:11:31.054Z,1007.24
2022-08-19T03:13:27.528Z,1007.26
2022-08-19T03:14:24.209Z,1007.27
2022-08-19T03:16:28.720Z,1007.32
2022-08-19T03:17:28.740Z,1007.32
2022-08-19T03:18:28.764Z,1007.33
2022-08-19T03:19:28.793Z,1007.28
2022-08-19T03:20:28.823Z,1007.28
2022-08-19T03:21:28.848Z,1007.28
2022-08-19T03:22:28.874Z,1007.29
2022-08-19T03:23:28.900Z,1007.29
2022-08-19T03:24:28.928Z,1007.34
2022-08-19T03:25:28.955Z,1007.30
2022-08-19T03:26:28.988Z,1007.27
2022-08-19T03:27:34.185Z,1007.28
2022-08-19T03:28:29.041Z,1007.28
2022-08-19T03:29:30.972Z,1007.29
2022-08-19T03:30:29.092Z,1007.33
2022-08-19T03:31:44.156Z,1007.33
2022-08-19T03:32:32.577Z,1007.37
2022-08-19T03:33:29.172Z,1007.35
2022-08-19T03:34:29.201Z,1007.41
2022-08-19T03:35:29.227Z,1007.40
2022-08-19T03:36:29.539Z,1007.39
2022-08-19T03:37:29.285Z,1007.45
2022-08-19T03:38:29.310Z,1007.41
2022-08-19T03:39:29.405Z,1007.44
2022-08-19T03:40:29.367Z,1007.43
2022-08-19T03:41:44.455Z,1007.43
2022-08-19T03:42:38.705Z,1007.39
2022-08-19T03:43:29.468Z,1007.41
2022-08-19T03:44:29.478Z,1007.40
2022-08-19T03:45:29.502Z,1007.39
2022-08-19T03:46:29.528Z,1007.37
2022-08-19T03:47:29.556Z,1007.38
2022-08-19T03:48:29.584Z,1007.37
2022-08-19T03:49:29.607Z,1007.36
2022-08-19T03:50:29.646Z,1007.36
2022-08-19T03:51:30.840Z,1007.39
2022-08-19T03:52:29.694Z,1007.40
2022-08-19T03:53:29.716Z,1007.41
2022-08-19T03:54:29.747Z,1007.44
2022-08-19T03:55:29.776Z,1007.45
2022-08-19T03:56:29.803Z,1007.46
2022-08-19T03:57:31.740Z,1007.47
2022-08-19T03:58:29.855Z,1007.50
2022-08-19T03:59:29.882Z,1007.51
2022-08-19T04:00:29.910Z,1007.52
2022-08-19T04:01:34.785Z,1007.54
2022-08-19T04:02:29.970Z,1007.50
2022-08-19T04:03:29.993Z,1007.50
2022-08-19T04:04:30.037Z,1007.51
2022-08-19T04:05:30.051Z,1007.48
2022-08-19T04:06:30.075Z,1007.51
2022-08-19T04:07:30.107Z,1007.55
2022-08-19T04:08:30.129Z,1007.56
2022-08-19T04:09:30.158Z,1007.59
2022-08-19T04:10:30.188Z,1007.61
2022-08-19T04:11:42.972Z,1007.62
2022-08-19T04:12:30.237Z,1007.60
2022-08-19T04:13:30.264Z,1007.63
2022-08-19T04:14:30.292Z,1007.59
2022-08-19T04:15:30.320Z,1007.62
2022-08-19T04:16:34.950Z,1007.62
2022-08-19T04:17:30.373Z,1007.66
2022-08-19T04:18:33.575Z,1007.66
2022-08-19T04:19:30.427Z,1007.66
2022-08-19T04:20:30.455Z,1007.65
2022-08-19T04:21:30.485Z,1007.65
2022-08-19T04:22:30.512Z,1007.64
2022-08-19T04:23:30.539Z,1007.64
2022-08-19T04:24:30.567Z,1007.60
2022-08-19T04:25:30.590Z,1007.60
2022-08-19T04:26:30.631Z,1007.55
2022-08-19T04:27:30.650Z,1007.55
2022-08-19T04:28:30.673Z,1007.53
2022-08-19T04:29:30.702Z,1007.54
2022-08-19T04:30:30.728Z,1007.54
2022-08-19T04:31:30.754Z,1007.54
2022-08-19T04:32:30.785Z,1007.56
2022-08-19T04:33:30.809Z,1007.55
2022-08-19T04:34:30.839Z,1007.56
2022-08-19T04:35:30.864Z,1007.53
2022-08-19T04:36:30.890Z,1007.56
2022-08-19T04:37:35.071Z,1007.53
2022-08-19T04:38:30.947Z,1007.53
2022-08-19T04:39:31.023Z,1007.56
2022-08-19T04:40:31.002Z,1007.55
2022-08-19T04:41:31.027Z,1007.56
2022-08-19T04:42:31.195Z,1007.55
2022-08-19T04:43:31.079Z,1007.54
2022-08-19T04:44:31.112Z,1007.54
2022-08-19T04:45:38.816Z,1007.55
2022-08-19T04:46:39.663Z,1007.51
2022-08-19T04:47:49.313Z,1007.51
2022-08-19T04:48:31.216Z,1007.48
2022-08-19T04:49:31.247Z,1007.52
2022-08-19T04:50:31.273Z,1007.54
2022-08-19T04:51:31.303Z,1007.53
2022-08-19T04:52:31.326Z,1007.52
2022-08-19T04:53:37.713Z,1007.53
2022-08-19T04:54:37.751Z,1007.52
2022-08-19T04:55:34.365Z,1007.59
2022-08-19T04:56:31.468Z,1007.62
2022-08-19T04:57:31.464Z,1007.63
2022-08-19T04:58:31.491Z,1007.62
2022-08-19T04:59:31.521Z,1007.63
2022-08-19T05:00:31.547Z,1007.69
2022-08-19T05:01:31.633Z,1007.66
2022-08-19T05:02:31.602Z,1007.62
2022-08-19T05:03:31.628Z,1007.62
2022-08-19T05:04:31.671Z,1007.64
2022-08-19T05:05:31.680Z,1007.64
2022-08-19T05:06:31.713Z,1007.64
2022-08-19T05:07:31.738Z,1007.67
2022-08-19T05:08:31.860Z,1007.64
2022-08-19T05:09:42.174Z,1007.66
2022-08-19T05:10:31.820Z,1007.65
2022-08-19T05:11:31.848Z,1007.66
2022-08-19T05:12:31.878Z,1007.69
2022-08-19T05:13:31.903Z,1007.70
2022-08-19T05:14:31.930Z,1007.70
2022-08-19T05:15:31.957Z,1007.71
2022-08-19T05:16:31.980Z,1007.69
2022-08-19T05:17:37.478Z,1007.72
2022-08-19T05:18:32.037Z,1007.74
2022-08-19T05:19:33.557Z,1007.76
2022-08-19T05:20:32.095Z,1007.76
2022-08-19T05:21:32.120Z,1007.79
2022-08-19T05:22:32.148Z,1007.82
2022-08-19T05:23:32.174Z,1007.82
2022-08-19T05:24:32.204Z,1007.85
2022-08-19T05:25:32.231Z,1007.84
2022-08-19T05:26:32.258Z,1007.86
2022-08-19T05:27:32.284Z,1007.80
2022-08-19T05:28:32.315Z,1007.82
2022-08-19T05:29:36.430Z,1007.81
2022-08-19T05:30:46.516Z,1007.76
2022-08-19T05:31:32.396Z,1007.75
2022-08-19T05:32:32.423Z,1007.73
2022-08-19T05:33:32.448Z,1007.70
2022-08-19T05:34:32.480Z,1007.69
2022-08-19T05:35:34.742Z,1007.71
2022-08-19T05:36:32.532Z,1007.73
2022-08-19T05:37:32.562Z,1007.71
2022-08-19T05:38:32.588Z,1007.75
2022-08-19T05:39:32.654Z,1007.72
2022-08-19T05:40:32.648Z,1007.76
2022-08-19T05:41:32.670Z,1007.76
2022-08-19T05:42:32.696Z,1007.78
2022-08-19T05:43:32.718Z,1007.76
2022-08-19T05:44:32.752Z,1007.79
2022-08-19T05:45:32.775Z,1007.78
2022-08-19T05:46:32.805Z,1007.78
2022-08-19T05:47:32.836Z,1007.77
2022-08-19T05:48:32.862Z,1007.77
2022-08-19T05:49:32.892Z,1007.77
2022-08-19T05:50:32.915Z,1007.75
2022-08-19T05:51:32.947Z,1007.74
2022-08-19T05:52:33.457Z,1007.74
2022-08-19T05:53:33.010Z,1007.76
2022-08-19T05:54:33.030Z,1007.75
2022-08-19T05:55:33.053Z,1007.68
2022-08-19T05:56:33.083Z,1007.69
2022-08-19T05:57:33.112Z,1007.69
2022-08-19T05:58:33.137Z,1007.73
2022-08-19T05:59:33.163Z,1007.71
2022-08-19T06:00:33.192Z,1007.67
2022-08-19T06:01:33.220Z,1007.70
2022-08-19T06:02:33.303Z,1007.70
2022-08-19T06:03:33.275Z,1007.66
2022-08-19T06:04:33.306Z,1007.67
2022-08-19T06:05:33.333Z,1007.66
2022-08-19T06:06:33.356Z,1007.65
2022-08-19T06:07:33.386Z,1007.64
2022-08-19T06:08:34.185Z,1007.64
2022-08-19T06:09:33.448Z,1007.63
2022-08-19T06:10:33.473Z,1007.62
2022-08-19T06:11:33.501Z,1007.58
2022-08-19T06:12:33.529Z,1007.56
2022-08-19T06:13:35.238Z,1007.54
2022-08-19T06:14:33.587Z,1007.55
2022-08-19T06:15:33.611Z,1007.55
2022-08-19T06:16:33.660Z,1007.55
2022-08-19T06:17:33.672Z,1007.53
2022-08-19T06:18:33.698Z,1007.52
2022-08-19T06:19:33.729Z,1007.54
2022-08-19T06:20:54.461Z,1007.54
2022-08-19T06:21:33.787Z,1007.55
2022-08-19T06:22:33.815Z,1007.55
2022-08-19T06:23:33.847Z,1007.53
2022-08-19T06:24:33.876Z,1007.54
2022-08-19T06:25:33.905Z,1007.53
2022-08-19T06:26:33.987Z,1007.47
2022-08-19T06:27:33.965Z,1007.49
2022-08-19T06:28:33.997Z,1007.47
2022-08-19T06:29:34.033Z,1007.46
2022-08-19T06:30:34.056Z,1007.45
2022-08-19T06:31:34.089Z,1007.47
2022-08-19T06:32:34.122Z,1007.44
2022-08-19T06:33:34.152Z,1007.43
2022-08-19T06:34:34.211Z,1007.47
2022-08-19T06:35:34.233Z,1007.46
2022-08-19T06:36:34.247Z,1007.46
2022-08-19T06:37:34.276Z,1007.52
2022-08-19T06:38:34.308Z,1007.54
2022-08-19T06:39:34.384Z,1007.49
2022-08-19T06:40:34.443Z,1007.51
2022-08-19T06:41:34.405Z,1007.52
2022-08-19T06:42:34.436Z,1007.52
2022-08-19T06:43:34.491Z,1007.50
2022-08-19T06:44:34.500Z,1007.48
2022-08-19T06:45:39.266Z,1007.49
2022-08-19T06:46:35.292Z,1007.52
2022-08-19T06:47:34.600Z,1007.54
2022-08-19T06:48:38.991Z,1007.58
2022-08-19T06:49:34.666Z,1007.59
2022-08-19T06:50:34.696Z,1007.65
2022-08-19T06:51:34.733Z,1007.64
2022-08-19T06:52:34.762Z,1007.64
2022-08-19T06:53:34.796Z,1007.64
2022-08-19T06:54:37.777Z,1007.66
2022-08-19T06:55:34.861Z,1007.67
2022-08-19T06:56:34.896Z,1007.68
2022-08-19T06:57:34.927Z,1007.67
2022-08-19T06:58:34.961Z,1007.64
2022-08-19T06:59:34.991Z,1007.67
2022-08-19T07:00:35.135Z,1007.68
2022-08-19T07:01:35.061Z,1007.67
2022-08-19T07:02:35.095Z,1007.68
2022-08-19T07:03:35.125Z,1007.63
2022-08-19T07:04:35.168Z,1007.62
2022-08-19T07:05:35.194Z,1007.64
2022-08-19T07:06:43.954Z,1007.66
2022-08-19T07:07:35.260Z,1007.66
2022-08-19T07:08:35.325Z,1007.63
2022-08-19T07:09:35.327Z,1007.67
2022-08-19T07:10:35.362Z,1007.73
2022-08-19T07:11:35.394Z,1007.72
2022-08-19T07:12:36.055Z,1007.76
2022-08-19T07:13:35.462Z,1007.75
2022-08-19T07:14:35.493Z,1007.74
2022-08-19T07:15:35.525Z,1007.79
2022-08-19T07:16:36.643Z,1007.79
2022-08-19T07:17:35.594Z,1007.84
2022-08-19T07:18:35.622Z,1007.83
2022-08-19T07:19:35.663Z,1007.83
2022-08-19T07:20:35.688Z,1007.81
2022-08-19T07:21:35.716Z,1007.83
2022-08-19T07:22:35.748Z,1007.81
2022-08-19T07:24:35.818Z,1007.78
2022-08-19T07:25:35.847Z,1007.80
2022-08-19T07:26:35.877Z,1007.80
2022-08-19T07:27:35.909Z,1007.81
2022-08-19T07:28:35.941Z,1007.80
2022-08-19T07:29:35.979Z,1007.79
2022-08-19T07:30:36.002Z,1007.79
2022-08-19T07:31:36.035Z,1007.79
2022-08-19T07:32:36.068Z,1007.82
2022-08-19T07:33:36.101Z,1007.79
2022-08-19T07:34:36.130Z,1007.80
2022-08-19T07:35:36.162Z,1007.84
2022-08-19T07:36:36.189Z,1007.83
2022-08-19T07:37:36.228Z,1007.88
2022-08-19T07:38:36.253Z,1007.90
2022-08-19T07:39:36.304Z,1007.92
2022-08-19T07:40:36.321Z,1007.96
2022-08-19T07:41:36.355Z,1008.01
2022-08-19T07:42:36.380Z,1008.04
2022-08-19T07:43:36.412Z,1008.08
2022-08-19T07:44:36.492Z,1008.07
2022-08-19T07:45:36.553Z,1008.04
2022-08-19T07:46:36.505Z,1008.09
2022-08-19T07:47:49.524Z,1008.08
2022-08-19T07:48:43.757Z,1008.07
2022-08-19T07:50:30.054Z,1008.09
2022-08-19T07:51:37.020Z,1008.05
2022-08-19T07:53:39.169Z,1008.11
2022-08-19T07:54:33.792Z,1008.05
2022-08-19T07:56:37.822Z,1008.00
2022-08-19T07:57:37.891Z,1008.06
2022-08-19T07:59:42.343Z,1008.04
2022-08-19T08:00:41.897Z,1008.08
2022-08-19T08:02:45.933Z,1008.10
2022-08-19T08:03:45.946Z,1008.11
2022-08-19T08:05:50.453Z,1008.10
2022-08-19T08:06:50.000Z,1008.15
2022-08-19T08:08:54.039Z,1008.15
2022-08-19T08:12:01.977Z,1008.15
2022-08-19T08:13:09.354Z,1008.16
2022-08-19T08:15:02.607Z,1008.18
2022-08-19T08:16:02.168Z,1008.23
2022-08-19T08:17:55.117Z,1008.22
2022-08-19T08:18:55.142Z,1008.26
2022-08-19T08:20:59.656Z,1008.29
2022-08-19T08:21:59.207Z,1008.28
2022-08-19T08:24:03.245Z,1008.27
2022-08-19T08:25:03.266Z,1008.27
2022-08-19T08:27:11.403Z,1008.27
2022-08-19T08:28:07.324Z,1008.30
2022-08-19T08:30:11.356Z,1008.27
2022-08-19T08:31:11.379Z,1008.31
2022-08-19T08:34:15.441Z,1008.31
2022-08-19T08:36:19.940Z,1008.25
2022-08-19T08:37:19.495Z,1008.22
2022-08-19T08:39:23.535Z,1008.23
2022-08-19T08:40:23.600Z,1008.24
2022-08-19T08:42:28.052Z,1008.26
2022-08-19T08:43:27.612Z,1008.26
2022-08-19T08:45:32.950Z,1008.27
2022-08-19T08:46:32.277Z,1008.26
2022-08-19T08:48:36.664Z,1008.26
2022-08-19T08:49:35.723Z,1008.29
2022-08-19T08:52:39.775Z,1008.28
2022-08-19T08:54:48.854Z,1008.29
2022-08-19T08:55:43.831Z,1008.32
2022-08-19T08:57:37.021Z,1008.31
2022-08-19T08:58:36.805Z,1008.28
2022-08-19T09:00:41.306Z,1008.33
2022-08-19T09:01:40.897Z,1008.30
2022-08-19T09:03:44.891Z,1008.33
2022-08-19T09:04:44.921Z,1008.33
2022-08-19T09:06:49.421Z,1008.33
2022-08-19T09:07:49.136Z,1008.35
2022-08-19T09:09:53.009Z,1008.34
2022-08-19T09:10:55.395Z,1008.35
2022-08-19T09:12:57.530Z,1008.33
2022-08-19T09:13:57.089Z,1008.31
2022-08-19T09:16:02.099Z,1008.34
2022-08-19T09:17:01.146Z,1008.33
2022-08-19T09:19:06.456Z,1008.34
2022-08-19T09:20:05.202Z,1008.32
2022-08-19T09:22:09.699Z,1008.33
2022-08-19T09:23:09.259Z,1008.35
2022-08-19T09:25:13.297Z,1008.35
2022-08-19T09:26:13.318Z,1008.37
2022-08-19T09:28:21.936Z,1008.38
2022-08-19T09:29:06.304Z,1008.38
2022-08-19T09:31:10.336Z,1008.33
2022-08-19T09:32:26.677Z,1008.33
2022-08-19T09:34:21.480Z,1008.32
2022-08-19T09:35:14.412Z,1008.41
2022-08-19T09:37:18.460Z,1008.33
2022-08-19T09:38:18.479Z,1008.38
2022-08-19T09:40:23.008Z,1008.31
2022-08-19T09:41:22.537Z,1008.30
2022-08-19T09:42:30.292Z,1008.34
2022-08-19T09:43:32.850Z,1008.32
2022-08-19T09:44:22.635Z,1008.33
2022-08-19T09:45:22.715Z,1008.33
2022-08-19T09:46:22.702Z,1008.31
2022-08-19T09:47:22.730Z,1008.32
2022-08-19T09:48:23.711Z,1008.27
2022-08-19T09:49:22.796Z,1008.29
2022-08-19T09:50:22.830Z,1008.29
2022-08-19T09:51:23.327Z,1008.26
2022-08-19T09:52:22.903Z,1008.27
2022-08-19T09:53:22.927Z,1008.25
2022-08-19T09:54:23.795Z,1008.25
2022-08-19T09:55:22.997Z,1008.26
2022-08-19T09:56:23.035Z,1008.27
2022-08-19T09:57:23.059Z,1008.26
2022-08-19T09:58:26.532Z,1008.25
2022-08-19T09:59:23.146Z,1008.30
2022-08-19T10:00:23.157Z,1008.34
2022-08-19T10:01:23.217Z,1008.28
2022-08-19T10:02:23.223Z,1008.28
2022-08-19T10:03:25.640Z,1008.29
2022-08-19T10:04:23.285Z,1008.28
2022-08-19T10:05:27.001Z,1008.30
2022-08-19T10:06:45.672Z,1008.28
2022-08-19T10:07:23.384Z,1008.28
2022-08-19T10:08:23.422Z,1008.27
2022-08-19T10:09:33.627Z,1008.24
2022-08-19T10:10:23.484Z,1008.31
2022-08-19T10:11:28.650Z,1008.30
2022-08-19T10:12:23.546Z,1008.25
2022-08-19T10:13:23.578Z,1008.23
2022-08-19T10:14:23.706Z,1008.22
2022-08-19T10:15:28.765Z,1008.25
2022-08-19T10:16:26.121Z,1008.25
2022-08-19T10:17:27.426Z,1008.21
2022-08-19T10:18:23.762Z,1008.18
2022-08-19T10:19:25.455Z,1008.20
2022-08-19T10:20:23.809Z,1008.21
2022-08-19T10:21:23.844Z,1008.14
2022-08-19T10:22:23.883Z,1008.10
2022-08-19T10:23:23.909Z,1008.11
2022-08-19T10:24:23.942Z,1008.12
2022-08-19T10:25:23.974Z,1008.14
2022-08-19T10:26:24.004Z,1008.10
2022-08-19T10:27:24.042Z,1008.12
2022-08-19T10:28:24.069Z,1008.11
2022-08-19T10:29:32.643Z,1008.08
2022-08-19T10:30:24.873Z,1008.08
2022-08-19T10:32:00.969Z,1008.12
2022-08-19T10:32:33.847Z,1008.09
2022-08-19T10:33:38.296Z,1008.08
2022-08-19T10:34:27.900Z,1008.07
2022-08-19T10:35:24.305Z,1008.12
2022-08-19T10:36:24.345Z,1008.09
2022-08-19T10:37:29.121Z,1008.11
2022-08-19T10:38:31.639Z,1008.10
2022-08-19T10:39:24.460Z,1008.08
2022-08-19T10:40:24.574Z,1008.06
2022-08-19T10:41:24.504Z,1008.09
2022-08-19T10:42:24.537Z,1008.06
2022-08-19T10:43:24.608Z,1008.07
2022-08-19T10:44:24.604Z,1008.07
2022-08-19T10:45:24.635Z,1008.07
2022-08-19T10:46:24.670Z,1008.07
2022-08-19T10:47:26.109Z,1008.05
2022-08-19T10:48:24.736Z,1008.04
2022-08-19T10:49:24.766Z,1008.04
2022-08-19T10:50:28.445Z,1008.07
2022-08-19T10:51:24.835Z,1008.03
2022-08-19T10:52:32.325Z,1008.00
2022-08-19T10:53:24.913Z,1008.00
2022-08-19T10:54:32.138Z,1007.95
2022-08-19T10:55:24.971Z,1007.94
2022-08-19T10:56:25.011Z,1007.88
2022-08-19T10:57:27.904Z,1007.89
2022-08-19T10:58:25.084Z,1007.87
2022-08-19T10:59:26.858Z,1007.82
2022-08-19T11:00:25.131Z,1007.87
2022-08-19T11:01:25.199Z,1007.84
2022-08-19T11:02:25.206Z,1007.85
2022-08-19T11:03:25.234Z,1007.86
2022-08-19T11:04:28.867Z,1007.85
2022-08-19T11:05:25.303Z,1007.83
2022-08-19T11:06:25.334Z,1007.82
2022-08-19T11:07:25.373Z,1007.81
2022-08-19T11:08:25.402Z,1007.81
2022-08-19T11:09:33.275Z,1007.81
2022-08-19T11:10:25.472Z,1007.74
2022-08-19T11:11:25.509Z,1007.68
2022-08-19T11:12:25.545Z,1007.69
2022-08-19T11:13:25.635Z,1007.72
2022-08-19T11:14:25.605Z,1007.67
2022-08-19T11:15:25.638Z,1007.65
2022-08-19T11:16:25.674Z,1007.65
2022-08-19T11:17:25.713Z,1007.65
2022-08-19T11:18:25.739Z,1007.66
2022-08-19T11:19:25.774Z,1007.69
2022-08-19T11:20:25.815Z,1007.69
2022-08-19T11:21:25.843Z,1007.70
2022-08-19T11:22:28.841Z,1007.66
2022-08-19T11:23:25.909Z,1007.70
2022-08-19T11:24:25.944Z,1007.68
2022-08-19T11:25:25.978Z,1007.68
2022-08-19T11:26:26.012Z,1007.65
2022-08-19T11:27:26.049Z,1007.68
2022-08-19T11:28:26.077Z,1007.66
2022-08-19T11:29:26.113Z,1007.66
2022-08-19T11:30:26.142Z,1007.62
2022-08-19T11:31:28.934Z,1007.69
2022-08-19T11:32:26.214Z,1007.71
2022-08-19T11:33:26.252Z,1007.65
2022-08-19T11:34:26.284Z,1007.66
2022-08-19T11:35:26.320Z,1007.66
2022-08-19T11:36:26.352Z,1007.66
2022-08-19T11:37:26.386Z,1007.64
2022-08-19T11:38:26.421Z,1007.64
2022-08-19T11:39:26.453Z,1007.61
2022-08-19T11:40:26.487Z,1007.58
2022-08-19T11:41:26.524Z,1007.55
2022-08-19T11:42:26.557Z,1007.51
2022-08-19T11:43:26.586Z,1007.57
2022-08-19T11:44:26.623Z,1007.54
2022-08-19T11:45:26.670Z,1007.51
2022-08-19T11:46:26.691Z,1007.54
2022-08-19T11:47:26.720Z,1007.54
2022-08-19T11:48:26.765Z,1007.52
2022-08-19T11:49:26.792Z,1007.49
2022-08-19T11:50:26.829Z,1007.50
2022-08-19T11:51:26.859Z,1007.51
2022-08-19T11:52:26.896Z,1007.59
2022-08-19T11:53:26.931Z,1007.51
2022-08-19T11:54:26.963Z,1007.54
2022-08-19T11:55:26.990Z,1007.56
2022-08-19T11:56:27.025Z,1007.55
2022-08-19T11:57:27.060Z,1007.53
2022-08-19T11:58:27.092Z,1007.55
2022-08-19T11:59:27.139Z,1007.55
2022-08-19T12:00:27.154Z,1007.55
2022-08-19T12:01:27.194Z,1007.52
2022-08-19T12:02:27.227Z,1007.52
2022-08-19T12:03:27.328Z,1007.51
2022-08-19T12:04:27.296Z,1007.54
2022-08-19T12:05:27.326Z,1007.48
2022-08-19T12:06:27.364Z,1007.52
2022-08-19T12:07:27.395Z,1007.48
2022-08-19T12:08:27.426Z,1007.50
2022-08-19T12:09:27.459Z,1007.49
2022-08-19T12:10:27.493Z,1007.49
2022-08-19T12:11:27.528Z,1007.45
2022-08-19T12:12:27.566Z,1007.45
2022-08-19T12:13:27.592Z,1007.46
2022-08-19T12:14:27.628Z,1007.42
2022-08-19T12:15:27.662Z,1007.43
2022-08-19T12:16:27.696Z,1007.45
2022-08-19T12:17:27.738Z,1007.46
2022-08-19T12:18:27.768Z,1007.44
2022-08-19T12:19:27.810Z,1007.52
2022-08-19T12:20:27.830Z,1007.42
2022-08-19T12:21:27.861Z,1007.43
2022-08-19T12:22:27.896Z,1007.45
2022-08-19T12:23:27.933Z,1007.46
2022-08-19T12:24:27.963Z,1007.43
2022-08-19T12:25:27.999Z,1007.40
2022-08-19T12:26:28.030Z,1007.36
2022-08-19T12:27:32.138Z,1007.39
2022-08-19T12:28:28.098Z,1007.35
2022-08-19T12:29:28.133Z,1007.34
2022-08-19T12:30:28.162Z,1007.34
2022-08-19T12:31:28.199Z,1007.31
2022-08-19T12:32:28.231Z,1007.28
2022-08-19T12:33:28.267Z,1007.27
2022-08-19T12:34:28.301Z,1007.24
2022-08-19T12:35:28.333Z,1007.26
2022-08-19T12:36:28.366Z,1007.25
2022-08-19T12:37:28.399Z,1007.23
2022-08-19T12:38:28.432Z,1007.24
2022-08-19T12:39:28.468Z,1007.24
2022-08-19T12:40:28.501Z,1007.25
2022-08-19T12:41:28.535Z,1007.27
2022-08-19T12:42:28.570Z,1007.27
2022-08-19T12:43:28.599Z,1007.29
2022-08-19T12:44:29.288Z,1007.29
2022-08-19T12:45:28.666Z,1007.30
2022-08-19T12:46:28.698Z,1007.28
2022-08-19T12:47:28.738Z,1007.29
2022-08-19T12:48:33.265Z,1007.28
2022-08-19T12:49:52.007Z,1007.32
2022-08-19T12:50:28.839Z,1007.28
2022-08-19T12:51:28.876Z,1007.29
2022-08-19T12:52:28.905Z,1007.29
2022-08-19T12:53:28.940Z,1007.27
2022-08-19T12:54:28.976Z,1007.23
2022-08-19T12:55:29.010Z,1007.25
2022-08-19T12:56:29.039Z,1007.24
2022-08-19T12:57:32.933Z,1007.20
2022-08-19T12:58:29.108Z,1007.23
2022-08-19T12:59:29.145Z,1007.20
2022-08-19T13:00:29.191Z,1007.25
2022-08-19T13:03:38.691Z,1007.12
2022-08-19T13:04:11.976Z,1007.16
2022-08-19T13:07:08.937Z,1007.09
2022-08-19T13:08:08.962Z,1007.07
2022-08-19T13:10:13.465Z,1007.04
2022-08-19T13:11:13.020Z,1007.09
2022-08-19T13:13:17.053Z,1007.11
2022-08-19T13:14:17.081Z,1007.14
2022-08-19T13:16:21.594Z,1007.16
2022-08-19T13:17:21.140Z,1007.14
2022-08-19T13:19:25.174Z,1007.19
2022-08-19T13:20:25.200Z,1007.12
2022-08-19T13:22:30.220Z,1007.16
2022-08-19T13:23:29.265Z,1007.13
2022-08-19T13:25:33.763Z,1007.13
2022-08-19T13:26:33.322Z,1007.10
2022-08-19T13:28:37.392Z,1007.07
2022-08-19T13:31:01.874Z,1007.11
2022-08-19T13:32:01.446Z,1007.03
2022-08-19T13:34:05.888Z,1007.05
2022-08-19T13:35:05.711Z,1006.98
2022-08-19T13:38:14.206Z,1006.98
2022-08-19T13:39:13.766Z,1007.01
2022-08-19T13:41:17.818Z,1006.93
2022-08-19T13:42:17.841Z,1006.93
2022-08-19T13:44:22.343Z,1006.87
2022-08-19T13:45:21.902Z,1006.85
2022-08-19T13:47:14.851Z,1006.80
2022-08-19T13:48:14.878Z,1006.82
2022-08-19T13:50:19.378Z,1006.83
2022-08-19T13:52:49.909Z,1006.84
2022-08-19T13:53:46.276Z,1006.83
2022-08-19T13:54:43.022Z,1006.80
2022-08-19T13:55:43.052Z,1006.81
2022-08-19T13:56:43.085Z,1006.78
2022-08-19T13:57:43.122Z,1006.81
2022-08-19T13:58:43.155Z,1006.79
2022-08-19T13:59:43.184Z,1006.78
2022-08-19T14:00:43.315Z,1006.74
2022-08-19T14:01:43.264Z,1006.73
2022-08-19T14:02:43.290Z,1006.76
2022-08-19T14:03:43.318Z,1006.72
2022-08-19T14:04:43.356Z,1006.75
2022-08-19T14:05:43.386Z,1006.74
2022-08-19T14:06:43.423Z,1006.71
2022-08-19T14:07:43.458Z,1006.75
2022-08-19T14:08:46.246Z,1006.73
2022-08-19T14:09:43.525Z,1006.70
2022-08-19T14:10:43.579Z,1006.71
2022-08-19T14:11:43.596Z,1006.69
2022-08-19T14:12:43.631Z,1006.74
2022-08-19T14:13:43.664Z,1006.71
2022-08-19T14:14:43.700Z,1006.74
2022-08-19T14:15:43.737Z,1006.70
2022-08-19T14:16:43.766Z,1006.71